Time;durP1;ratioP1;P1;durP2;ratioP2;P2;SDS_P1;SDS_P2;PMS_P1;PMS_P2;Temp;Humidity;BMP_temperature;BMP_pressure;BME280_temperature;BME280_humidity;BME280_pressure;Samples;Min_cycle;Max_cycle;Signal;HPM_P1;HPM_P2
2023/07/14 00:00:18;;;;;;;22.73;11.15;;;;;;;-143.21;61.39;70896.47;5115255;27;20299;-83
2023/07/14 00:02:46;;;;;;;24.88;12.43;;;;;;;-143.21;61.23;70906.38;5112485;27;20674;-82
2023/07/14 00:05:17;;;;;;;26.15;11.57;;;;;;;-143.21;60.71;70916.28;5117230;27;21075;-83
2023/07/14 00:07:45;;;;;;;23.90;11.15;;;;;;;-143.21;60.92;70926.19;5114744;27;20745;-83
2023/07/14 00:10:19;;;;;;;19.05;11.00;;;;;;;-143.21;61.54;70926.19;5116208;27;20700;-82
2023/07/14 00:12:46;;;;;;;20.83;11.07;;;;;;;-143.21;62.13;70922.22;5113135;28;20666;-83
2023/07/14 00:15:13;;;;;;;32.05;12.02;;;;;;;-143.21;62.42;70924.22;5116424;27;20574;-82
2023/07/14 00:17:40;;;;;;;25.52;11.52;;;;;;;-143.21;62.49;70924.22;5112487;27;20235;-83
2023/07/14 00:20:19;;;;;;;23.10;11.63;;;;;;;-143.21;62.62;70930.16;5112231;28;20211;-83
2023/07/14 00:22:46;;;;;;;26.55;11.77;;;;;;;-143.21;63.21;70938.09;5115270;27;20188;-82
2023/07/14 00:25:15;;;;;;;26.00;12.02;;;;;;;-143.21;63.09;70949.97;5112456;27;20219;-83
2023/07/14 00:27:42;;;;;;;26.30;12.07;;;;;;;-143.21;63.38;70955.94;5112073;27;20235;-83
2023/07/14 00:30:15;;;;;;;20.80;11.55;;;;;;;-143.21;63.07;70953.94;5112244;27;20228;-83
2023/07/14 00:32:42;;;;;;;23.27;11.60;;;;;;;-143.21;63.38;70949.97;5111871;28;20208;-83
2023/07/14 00:35:23;;;;;;;18.35;10.70;;;;;;;-143.21;63.63;70948.00;5112038;27;20247;-87
2023/07/14 00:37:52;;;;;;;22.40;12.35;;;;;;;-143.21;64.01;70957.91;5121151;27;20210;-85
2023/07/14 00:40:22;;;;;;;22.65;13.00;;;;;;;-143.21;63.96;70967.81;5122951;27;20208;-85
2023/07/14 00:42:56;;;;;;;22.95;13.63;;;;;;;-143.21;64.03;70981.69;5120375;27;20204;-83
2023/07/14 00:45:26;;;;;;;25.48;13.48;;;;;;;-143.21;63.22;70983.69;5110116;27;20223;-82
2023/07/14 00:47:57;;;;;;;29.98;11.98;;;;;;;-143.21;63.04;70997.56;5111905;27;20611;-83
2023/07/14 00:50:32;;;;;;;19.45;10.43;;;;;;;-143.21;62.90;70993.59;5116046;27;20195;-84
2023/07/14 00:53:02;;;;;;;24.70;11.27;;;;;;;-143.21;63.13;70997.56;5120580;27;20190;-83
2023/07/14 00:55:38;;;;;;;21.35;10.80;;;;;;;-143.21;63.00;71013.41;5119485;27;20188;-83
2023/07/14 00:58:13;;;;;;;20.27;10.05;;;;;;;-143.21;63.11;71027.28;5110641;28;20195;-83
2023/07/14 01:00:40;;;;;;;18.15;10.73;;;;;;;-143.21;64.01;71047.13;5119960;27;20222;-83
2023/07/14 01:03:16;;;;;;;19.67;9.98;;;;;;;-143.21;63.98;71059.00;5117368;27;20290;-84
2023/07/14 01:05:43;;;;;;;19.77;11.20;;;;;;;-143.21;64.17;71059.00;5110520;27;20211;-84
2023/07/14 01:08:10;;;;;;;18.08;10.10;;;;;;;-143.21;63.72;71059.00;5114326;27;20204;-83
2023/07/14 01:10:38;;;;;;;19.92;11.30;;;;;;;-143.21;63.51;71059.00;5114999;27;20208;-84
2023/07/14 01:13:09;;;;;;;16.70;11.65;;;;;;;-143.21;63.51;71070.91;5115695;27;20212;-83
2023/07/14 01:15:38;;;;;;;21.33;11.05;;;;;;;-143.21;63.96;71086.75;5110907;27;20196;-84
2023/07/14 01:18:06;;;;;;;17.17;10.30;;;;;;;-143.21;63.99;71086.75;5109800;28;20302;-83
2023/07/14 01:20:33;;;;;;;20.65;10.25;;;;;;;-143.21;63.62;71074.88;5113758;27;20204;-83
2023/07/14 01:23:17;;;;;;;19.10;10.10;;;;;;;-143.21;64.41;71096.69;5110992;27;20204;-84
2023/07/14 01:26:00;;;;;;;18.95;9.77;;;;;;;-143.21;64.64;71112.53;5115059;27;20204;-84
2023/07/14 01:28:28;;;;;;;19.05;10.45;;;;;;;-143.21;64.49;71114.53;5108525;28;20215;-84
2023/07/14 01:30:56;;;;;;;17.98;9.73;;;;;;;-143.21;65.40;71130.38;5110787;28;20268;-84
2023/07/14 01:33:22;;;;;;;14.43;9.82;;;;;;;-143.21;65.67;71134.34;5110355;27;20633;-84
2023/07/14 01:35:54;;;;;;;20.13;10.27;;;;;;;-143.21;66.23;71132.38;5110810;28;20642;-82
2023/07/14 01:38:22;;;;;;;18.85;10.25;;;;;;;-143.21;66.46;71136.31;5108099;28;20195;-82
2023/07/14 01:40:49;;;;;;;21.05;9.90;;;;;;;-143.21;66.16;71122.44;5107218;28;20662;-83
2023/07/14 01:43:16;;;;;;;23.85;9.80;;;;;;;-143.21;65.90;71114.53;5110466;28;20196;-85
2023/07/14 01:45:50;;;;;;;16.75;9.52;;;;;;;-143.21;66.06;71108.56;5110758;28;20227;-85
2023/07/14 01:48:22;;;;;;;22.65;10.38;;;;;;;-143.21;65.88;71116.50;5118287;27;20238;-84
2023/07/14 01:50:55;;;;;;;17.20;10.35;;;;;;;-143.21;65.97;71114.53;5113149;27;20239;-84
2023/07/14 01:53:26;;;;;;;19.23;10.10;;;;;;;-143.21;66.14;71112.53;5111351;27;20656;-85
2023/07/14 01:55:55;;;;;;;15.20;9.65;;;;;;;-143.21;65.40;71104.59;5114265;27;20199;-84
2023/07/14 01:58:26;;;;;;;15.23;10.00;;;;;;;-143.21;65.09;71108.56;5110746;28;20776;-84
2023/07/14 02:00:55;;;;;;;17.27;9.98;;;;;;;-143.21;64.93;71110.56;5109262;27;20219;-84
2023/07/14 02:03:33;;;;;;;16.27;10.35;;;;;;;-143.21;64.88;71114.53;5110922;27;20288;-82
2023/07/14 02:06:00;;;;;;;21.50;10.63;;;;;;;-143.21;65.47;71120.47;5110578;27;20203;-85
2023/07/14 02:08:27;;;;;;;18.20;10.30;;;;;;;-143.21;65.46;71134.34;5109242;28;20636;-84
2023/07/14 02:10:54;;;;;;;20.08;9.82;;;;;;;-143.21;65.40;71138.31;5109684;28;20196;-84
2023/07/14 02:13:22;;;;;;;15.80;10.07;;;;;;;-143.21;64.63;71140.28;5113135;27;20260;-85
2023/07/14 02:15:50;;;;;;;16.25;9.85;;;;;;;-143.21;64.16;71140.28;5109896;27;20555;-84
2023/07/14 02:18:22;;;;;;;13.70;9.88;;;;;;;-143.21;63.85;71146.25;5109989;28;20200;-84
2023/07/14 02:20:50;;;;;;;17.48;9.82;;;;;;;-143.21;64.12;71148.22;5106541;28;20207;-84
2023/07/14 02:23:20;;;;;;;14.10;9.57;;;;;;;-143.21;63.80;71154.16;5110297;28;20200;-84
2023/07/14 02:25:49;;;;;;;15.48;9.48;;;;;;;-143.21;63.94;71154.16;5108477;28;20192;-84
2023/07/14 02:28:15;;;;;;;19.95;9.88;;;;;;;-143.21;63.90;71164.09;5113310;28;20204;-84
2023/07/14 02:30:50;;;;;;;19.65;10.38;;;;;;;-143.21;64.04;71166.06;5111900;28;20219;-84
2023/07/14 02:33:25;;;;;;;25.83;10.60;;;;;;;-143.21;62.58;71154.16;5114267;27;20619;-84
2023/07/14 02:35:57;;;;;;;23.88;11.30;;;;;;;-143.21;62.94;71170.03;5111391;27;20211;-84
2023/07/14 02:38:25;;;;;;;19.67;11.30;;;;;;;-143.21;62.39;71175.97;5111291;28;20199;-85
2023/07/14 02:40:55;;;;;;;24.77;10.52;;;;;;;-143.21;63.38;71195.81;5113975;28;20264;-85
2023/07/14 02:43:24;;;;;;;19.23;9.70;;;;;;;-143.21;63.61;71193.81;5117438;27;20231;-84
2023/07/14 02:45:55;;;;;;;19.17;10.40;;;;;;;-143.21;63.58;71205.72;5112276;27;20204;-85
2023/07/14 02:48:27;;;;;;;16.00;9.90;;;;;;;-143.21;63.91;71219.59;5110897;28;20223;-85
2023/07/14 02:50:54;;;;;;;19.02;9.55;;;;;;;-143.21;62.96;71221.56;5110855;28;20299;-85
2023/07/14 02:53:21;;;;;;;17.58;10.07;;;;;;;-143.21;62.61;71197.78;5117661;27;20728;-85
2023/07/14 02:55:48;;;;;;;16.73;9.32;;;;;;;-143.21;62.13;71195.81;5115621;27;20203;-85
2023/07/14 02:58:15;;;;;;;16.30;8.65;;;;;;;-143.21;61.94;71185.88;5119966;27;20703;-86
2023/07/14 03:00:41;;;;;;;15.75;8.80;;;;;;;-143.21;61.75;71185.88;5112031;27;20204;-85
2023/07/14 03:03:08;;;;;;;17.20;9.23;;;;;;;-143.21;61.71;71185.88;5113314;27;21008;-85
2023/07/14 03:05:36;;;;;;;16.40;8.63;;;;;;;-143.21;61.64;71183.91;5117678;27;20698;-84
2023/07/14 03:08:07;;;;;;;18.95;9.05;;;;;;;-143.21;61.57;71183.91;5114831;27;20689;-84
2023/07/14 03:10:33;;;;;;;19.13;8.95;;;;;;;-143.21;61.72;71181.94;5112361;28;20196;-85
2023/07/14 03:13:00;;;;;;;13.43;8.48;;;;;;;-143.21;61.33;71168.06;5111365;28;20200;-84
2023/07/14 03:15:27;;;;;;;19.05;9.35;;;;;;;-143.21;59.60;71158.13;5119994;27;20199;-84
2023/07/14 03:17:54;;;;;;;15.95;8.70;;;;;;;-143.21;59.63;71156.16;5116926;27;20206;-85
2023/07/14 03:20:22;;;;;;;20.35;9.20;;;;;;;-143.21;58.37;71154.16;5113176;28;20196;-85
2023/07/14 03:22:50;;;;;;;24.25;9.02;;;;;;;-143.21;57.88;71144.25;5112817;27;20200;-84
2023/07/14 03:25:17;;;;;;;16.95;9.02;;;;;;;-143.21;54.03;71122.44;5111917;27;20728;-84
2023/07/14 03:27:45;;;;;;;22.45;9.38;;;;;;;-143.21;52.20;71104.59;5117198;27;20211;-85
2023/07/14 03:30:13;;;;;;;18.15;8.60;;;;;;;-143.21;49.99;71092.72;5110683;28;20321;-86
2023/07/14 03:32:40;;;;;;;16.23;9.05;;;;;;;-143.21;47.25;71066.94;5116169;27;20204;-85
2023/07/14 03:35:07;;;;;;;20.42;8.30;;;;;;;-143.21;45.06;71031.25;5111767;27;20208;-86
2023/07/14 03:37:35;;;;;;;17.88;8.57;;;;;;;-143.21;44.35;71001.53;5114926;27;20199;-84
2023/07/14 03:40:05;;;;;;;19.80;8.98;;;;;;;-143.21;44.23;70983.69;5112445;27;20292;-85
2023/07/14 03:42:32;;;;;;;17.58;8.13;;;;;;;-143.21;43.93;70973.78;5113626;27;20260;-85
2023/07/14 03:44:58;;;;;;;15.80;8.45;;;;;;;-143.21;43.90;70967.81;5111377;28;20609;-84
2023/07/14 03:47:26;;;;;;;13.27;8.18;;;;;;;-143.21;43.37;70957.91;5111566;28;20200;-84
2023/07/14 03:49:53;;;;;;;16.35;9.18;;;;;;;-143.21;43.08;70955.94;5115620;27;20227;-83
2023/07/14 03:52:20;;;;;;;14.90;8.02;;;;;;;-143.21;43.15;70961.88;5108782;28;20200;-83
2023/07/14 03:54:47;;;;;;;15.60;8.38;;;;;;;-143.21;42.70;70959.91;5112363;27;20269;-83
2023/07/14 03:57:15;;;;;;;15.73;8.55;;;;;;;-143.21;42.95;70965.84;5113538;27;20208;-84
2023/07/14 03:59:42;;;;;;;16.73;8.18;;;;;;;-143.21;43.45;70965.84;5112048;27;20208;-84
2023/07/14 04:02:08;;;;;;;17.25;8.60;;;;;;;-143.21;44.09;70959.91;5114072;27;20268;-84
2023/07/14 04:04:35;;;;;;;17.90;8.68;;;;;;;-143.21;44.04;70961.88;5113592;27;20709;-83
2023/07/14 04:07:02;;;;;;;14.10;8.13;;;;;;;-143.21;44.28;70959.91;5113289;27;20207;-84
2023/07/14 04:09:29;;;;;;;13.75;8.70;;;;;;;-143.21;45.93;70963.84;5114139;27;20224;-79
2023/07/14 04:11:56;;;;;;;19.88;9.40;;;;;;;-143.21;47.03;70979.72;5119627;27;20204;-78
2023/07/14 04:14:24;;;;;;;16.67;9.30;;;;;;;-143.21;47.72;70987.66;5112383;27;20204;-79
2023/07/14 04:16:51;;;;;;;17.05;8.75;;;;;;;-143.21;48.22;71009.44;5119643;27;20207;-79
2023/07/14 04:19:18;;;;;;;20.17;9.07;;;;;;;-143.21;49.23;71023.34;5120203;27;20601;-79
2023/07/14 04:21:46;;;;;;;21.58;10.18;;;;;;;-143.21;47.54;71025.31;5113811;27;20207;-79
2023/07/14 04:24:13;;;;;;;17.67;9.52;;;;;;;-143.21;48.12;71039.19;5112440;27;20743;-78
2023/07/14 04:26:40;;;;;;;19.73;9.05;;;;;;;-143.21;48.45;71064.97;5113542;27;20247;-78
2023/07/14 04:29:10;;;;;;;19.27;9.30;;;;;;;-143.21;48.39;71059.00;5118456;27;20215;-78
2023/07/14 04:31:39;;;;;;;20.92;9.00;;;;;;;-143.21;48.71;71043.16;5110297;27;20204;-78
2023/07/14 04:34:06;;;;;;;22.17;9.35;;;;;;;-143.21;49.89;71080.81;5113486;27;20204;-78
2023/07/14 04:36:35;;;;;;;18.10;9.80;;;;;;;-143.21;50.53;71102.63;5109930;27;20287;-80
2023/07/14 04:39:05;;;;;;;22.52;9.32;;;;;;;-143.21;50.75;71092.72;5116270;27;20276;-80
2023/07/14 04:41:32;;;;;;;16.23;9.27;;;;;;;-143.21;50.65;71098.66;5113810;27;20207;-80
2023/07/14 04:44:03;;;;;;;21.05;9.57;;;;;;;-143.21;51.15;71106.59;5112602;27;20211;-80
2023/07/14 04:46:30;;;;;;;15.68;9.55;;;;;;;-143.21;51.41;71102.63;5112077;27;20200;-80
2023/07/14 04:48:58;;;;;;;20.77;9.43;;;;;;;-143.21;51.31;71100.66;5112412;27;20665;-81
2023/07/14 04:51:25;;;;;;;15.70;9.65;;;;;;;-143.21;51.74;71102.63;5119875;27;20200;-81
2023/07/14 04:53:52;;;;;;;15.52;9.23;;;;;;;-143.21;51.32;71100.66;5112834;27;20207;-81
2023/07/14 04:56:19;;;;;;;22.88;10.15;;;;;;;-143.21;51.87;71092.72;5110479;27;20203;-81
2023/07/14 04:58:46;;;;;;;19.05;9.88;;;;;;;-143.21;51.87;71094.69;5116850;27;20195;-80
2023/07/14 05:01:13;;;;;;;16.52;9.60;;;;;;;-143.21;51.96;71092.72;5108184;27;20211;-81
2023/07/14 05:03:39;;;;;;;20.52;10.10;;;;;;;-143.21;51.38;71086.75;5109508;27;20212;-83
2023/07/14 05:06:08;;;;;;;19.85;9.68;;;;;;;-143.21;51.12;71082.81;5110291;27;20713;-84
2023/07/14 05:08:35;;;;;;;24.92;10.50;;;;;;;-143.21;50.94;71090.72;5115036;27;20207;-85
2023/07/14 05:11:02;;;;;;;17.40;10.05;;;;;;;-143.21;51.47;71088.75;5111671;27;20283;-83
2023/07/14 05:13:29;;;;;;;14.30;9.45;;;;;;;-143.21;51.74;71090.72;5112755;27;20207;-84
2023/07/14 05:15:57;;;;;;;20.00;9.77;;;;;;;-143.21;53.13;71082.81;5110678;27;20213;-84
2023/07/14 05:18:24;;;;;;;23.00;10.10;;;;;;;-143.21;51.67;71078.84;5113693;27;20200;-84
2023/07/14 05:20:51;;;;;;;17.10;9.98;;;;;;;-143.21;51.14;71086.75;5110789;28;20647;-83
2023/07/14 05:23:19;;;;;;;20.02;9.57;;;;;;;-143.21;52.36;71074.88;5113996;27;20192;-84
2023/07/14 05:25:46;;;;;;;19.58;9.18;;;;;;;-143.21;52.81;71082.81;5114633;27;20219;-82
2023/07/14 05:28:13;;;;;;;17.67;9.80;;;;;;;-143.21;52.16;71080.81;5110385;28;20215;-82
2023/07/14 05:30:40;;;;;;;17.08;9.90;;;;;;;-143.21;53.09;71090.72;5112410;27;20212;-81
2023/07/14 05:33:09;;;;;;;17.40;9.45;;;;;;;-143.21;53.76;71086.75;5110855;28;20200;-82
2023/07/14 05:35:36;;;;;;;14.82;9.52;;;;;;;-143.21;54.18;71082.81;5110544;28;20291;-81
2023/07/14 05:38:03;;;;;;;15.18;9.15;;;;;;;-143.21;53.96;71078.84;5110101;28;20200;-82
2023/07/14 05:40:32;;;;;;;17.00;8.77;;;;;;;-143.21;53.57;71070.91;5113816;27;20273;-81
2023/07/14 05:42:59;;;;;;;14.90;9.32;;;;;;;-143.21;54.20;71068.94;5110555;27;20220;-82
2023/07/14 05:45:26;;;;;;;17.77;9.30;;;;;;;-143.21;55.40;71066.94;5110536;28;20228;-83
2023/07/14 05:47:53;;;;;;;15.25;8.88;;;;;;;-143.21;55.70;71066.94;5110094;28;20216;-82
2023/07/14 05:50:20;;;;;;;20.80;9.27;;;;;;;-143.21;55.54;71061.00;5110702;28;20211;-83
2023/07/14 05:52:47;;;;;;;16.05;8.95;;;;;;;-143.21;56.03;71061.00;5108036;28;20196;-83
2023/07/14 05:55:14;;;;;;;26.30;9.35;;;;;;;-143.21;56.11;71057.03;5109728;28;20251;-83
2023/07/14 05:57:43;;;;;;;15.93;8.98;;;;;;;-143.21;56.37;71039.19;5113167;27;20204;-83
2023/07/14 06:00:16;;;;;;;13.90;9.18;;;;;;;-143.21;56.32;71049.09;5113025;27;20289;-84
2023/07/14 06:02:44;;;;;;;14.10;9.13;;;;;;;-143.21;56.82;71051.09;5115366;27;20238;-84
2023/07/14 06:05:12;;;;;;;20.65;9.80;;;;;;;-143.21;56.81;71041.16;5111641;27;20272;-84
2023/07/14 06:07:40;;;;;;;22.38;10.32;;;;;;;-143.21;56.37;71029.28;5110027;28;21202;-84
2023/07/14 06:10:08;;;;;;;14.93;8.60;;;;;;;-143.21;55.83;71033.25;5109246;28;20207;-84
2023/07/14 06:12:35;;;;;;;17.17;8.95;;;;;;;-143.21;55.78;71035.22;5109596;27;20208;-83
2023/07/14 06:15:04;;;;;;;17.55;9.60;;;;;;;-143.21;55.79;71031.25;5109082;28;20207;-83
2023/07/14 06:17:31;;;;;;;19.38;9.02;;;;;;;-143.21;55.92;71027.28;5110390;28;20200;-83
2023/07/14 06:19:57;;;;;;;15.38;9.40;;;;;;;-143.21;55.43;71021.34;5110282;28;20196;-83
2023/07/14 06:22:24;;;;;;;31.02;10.55;;;;;;;-143.21;55.92;71015.41;5109784;28;20206;-84
2023/07/14 06:24:51;;;;;;;20.58;10.10;;;;;;;-143.21;56.17;71003.50;5103219;28;20213;-83
2023/07/14 06:27:18;;;;;;;64.57;12.25;;;;;;;-143.21;56.56;70999.53;5106150;28;20693;-82
2023/07/14 06:29:46;;;;;;;33.35;10.15;;;;;;;-143.21;56.27;70995.56;5109105;28;20212;-83
2023/07/14 06:32:15;;;;;;;23.40;10.77;;;;;;;-143.21;55.92;70987.66;5109534;28;20291;-82
2023/07/14 06:34:42;;;;;;;17.77;10.45;;;;;;;-143.21;56.28;70979.72;5109470;28;20290;-82
2023/07/14 06:37:09;;;;;;;24.35;10.50;;;;;;;-143.21;56.50;70971.78;5109724;28;20207;-82
2023/07/14 06:39:36;;;;;;;16.05;9.98;;;;;;;-143.21;55.41;70965.84;5112942;28;20681;-82
2023/07/14 06:42:03;;;;;;;20.45;10.30;;;;;;;-143.21;54.65;70961.88;5109233;28;20203;-82
2023/07/14 06:44:30;;;;;;;17.23;9.18;;;;;;;-143.21;54.95;70965.84;5109021;28;20200;-82
2023/07/14 06:46:57;;;;;;;26.30;11.32;;;;;;;-143.21;55.21;70955.94;5112597;28;20220;-82
2023/07/14 06:49:25;;;;;;;19.77;10.95;;;;;;;-143.21;55.27;70949.97;5108965;28;20650;-82
2023/07/14 06:51:52;;;;;;;21.80;9.93;;;;;;;-143.21;55.05;70949.97;5113133;28;20200;-81
2023/07/14 06:54:19;;;;;;;51.97;16.63;;;;;;;-143.21;55.02;70946.03;5109746;28;20200;-80
2023/07/14 06:56:46;;;;;;;43.30;14.18;;;;;;;-143.21;54.93;70944.03;5109618;28;20200;-82
2023/07/14 06:59:13;;;;;;;24.58;10.85;;;;;;;-143.21;54.93;70936.09;5111312;28;20212;-82
2023/07/14 07:01:39;;;;;;;16.92;10.52;;;;;;;-143.21;54.92;70926.19;5109367;28;20208;-82
2023/07/14 07:04:06;;;;;;;18.58;9.88;;;;;;;-143.21;54.43;70930.16;5112672;28;20207;-84
2023/07/14 07:06:34;;;;;;;17.45;9.98;;;;;;;-143.21;54.96;70924.22;5112898;28;20215;-83
2023/07/14 07:09:01;;;;;;;16.48;8.45;;;;;;;-143.21;54.45;70918.25;5110187;28;20575;-84
2023/07/14 07:11:28;;;;;;;20.45;9.57;;;;;;;-143.21;54.52;70906.38;5110585;28;20666;-83
2023/07/14 07:13:58;;;;;;;19.98;9.88;;;;;;;-143.21;54.06;70890.50;5110188;28;20204;-83
2023/07/14 07:16:24;;;;;;;15.85;9.73;;;;;;;-143.21;53.94;70882.59;5110637;27;20200;-84
2023/07/14 07:18:51;;;;;;;10.63;7.70;;;;;;;-143.21;49.16;70888.53;5116874;27;20207;-88
2023/07/14 07:21:18;;;;;;;16.70;8.88;;;;;;;-143.21;51.10;70900.41;5113197;27;20207;-83
2023/07/14 07:23:46;;;;;;;13.80;10.02;;;;;;;-143.21;53.58;70892.50;5113776;28;20211;-84
2023/07/14 07:26:13;;;;;;;18.95;10.18;;;;;;;-143.21;53.01;70878.63;5112792;28;20222;-81
2023/07/14 07:28:40;;;;;;;12.48;9.43;;;;;;;-143.21;53.77;70860.78;5113611;28;20697;-86
2023/07/14 07:31:09;;;;;;;12.27;8.35;;;;;;;-143.21;51.62;70868.72;5114324;28;20196;-86
2023/07/14 07:33:37;;;;;;;19.85;10.00;;;;;;;-143.21;53.27;70862.75;5113174;27;20195;-86
2023/07/14 07:36:14;;;;;;;16.77;9.10;;;;;;;-143.21;52.40;70848.88;5116469;27;20286;-85
2023/07/14 07:38:43;;;;;;;18.75;8.88;;;;;;;-143.21;52.33;70846.91;5112721;28;20196;-86
2023/07/14 07:41:12;;;;;;;15.73;9.38;;;;;;;-143.21;52.63;70840.97;5115134;27;20215;-78
2023/07/14 07:43:39;;;;;;;13.25;9.02;;;;;;;-143.21;52.43;70827.06;5121933;27;20218;-78
2023/07/14 07:46:05;;;;;;;13.98;8.75;;;;;;;-143.21;50.41;70848.88;5115020;27;20310;-76
2023/07/14 07:48:32;;;;;;;15.27;8.93;;;;;;;-143.21;51.11;70831.03;5110814;27;20228;-77
2023/07/14 07:50:59;;;;;;;23.77;8.77;;;;;;;-143.21;48.61;70817.16;5115112;27;20204;-77
2023/07/14 07:53:26;;;;;;;17.70;9.10;;;;;;;-143.21;51.39;70821.13;5125384;27;20200;-79
2023/07/14 07:55:54;;;;;;;17.00;9.32;;;;;;;-143.21;51.07;70823.13;5117675;27;20620;-76
2023/07/14 07:58:24;;;;;;;15.48;9.00;;;;;;;-143.21;51.59;70827.06;5114559;27;20658;-79
2023/07/14 08:00:51;;;;;;;19.23;9.63;;;;;;;-143.21;50.87;70823.13;5112086;27;20279;-77
2023/07/14 08:03:18;;;;;;;17.52;9.60;;;;;;;-143.21;49.79;70840.97;5122568;27;20203;-77
2023/07/14 08:05:45;;;;;;;17.13;9.45;;;;;;;-143.21;49.31;70817.16;5111133;27;20295;-77
2023/07/14 08:08:12;;;;;;;18.25;8.32;;;;;;;-143.21;50.70;70793.38;5117078;27;20227;-77
2023/07/14 08:10:42;;;;;;;15.98;9.98;;;;;;;-143.21;48.20;70769.59;5120037;27;20208;-77
2023/07/14 08:13:11;;;;;;;13.63;8.50;;;;;;;-143.21;48.19;70761.66;5114971;27;20298;-77
2023/07/14 08:15:39;;;;;;;15.73;8.00;;;;;;;-143.21;48.10;70749.78;5114177;27;20200;-78
2023/07/14 08:18:07;;;;;;;16.30;8.77;;;;;;;-143.21;49.54;70761.66;5111655;27;20204;-79
2023/07/14 08:20:36;;;;;;;16.25;8.73;;;;;;;-143.21;50.47;70755.72;5119427;27;20626;-77
2023/07/14 08:23:04;;;;;;;13.02;8.73;;;;;;;-143.21;49.95;70771.56;5116040;27;20235;-79
2023/07/14 08:25:30;;;;;;;15.90;9.35;;;;;;;-143.21;50.15;70757.69;5117880;27;20198;-78
2023/07/14 08:27:57;;;;;;;18.05;8.98;;;;;;;-143.21;49.08;70769.59;5118392;27;20220;-78
2023/07/14 08:30:24;;;;;;;16.17;9.32;;;;;;;-143.21;49.90;70735.91;5111706;27;20207;-79
2023/07/14 08:32:53;;;;;;;20.23;9.13;;;;;;;-143.21;48.31;70716.06;5118912;27;20234;-79
2023/07/14 08:35:21;;;;;;;16.83;8.23;;;;;;;-143.21;46.95;70712.09;5115595;27;20192;-79
2023/07/14 08:37:48;;;;;;;16.13;8.85;;;;;;;-143.21;48.04;70712.09;5117508;27;20185;-79
2023/07/14 08:40:20;;;;;;;15.50;8.82;;;;;;;-143.21;47.87;70690.31;5120383;27;20721;-78
2023/07/14 08:43:01;;;;;;;17.10;9.27;;;;;;;-143.21;47.85;70686.34;5117551;27;20211;-78
2023/07/14 08:45:37;;;;;;;20.13;9.40;;;;;;;-143.21;48.21;70684.34;5111555;27;20195;-78
2023/07/14 08:48:21;;;;;;;14.18;8.77;;;;;;;-143.21;47.86;70684.34;5110509;27;20304;-79
2023/07/14 08:50:53;;;;;;;13.55;8.52;;;;;;;-143.21;48.18;70672.47;5114968;27;20237;-78
2023/07/14 08:53:23;;;;;;;19.92;9.02;;;;;;;-143.21;47.24;70664.53;5111063;27;20265;-77
2023/07/14 08:55:50;;;;;;;18.23;9.18;;;;;;;-143.21;48.36;70642.72;5110609;27;20192;-79
2023/07/14 08:58:24;;;;;;;18.35;9.52;;;;;;;-143.21;47.69;70648.69;5124334;27;20207;-78
2023/07/14 09:01:03;;;;;;;19.85;9.95;;;;;;;-143.21;46.54;70632.81;5117777;27;20224;-78
2023/07/14 09:03:39;;;;;;;17.65;9.20;;;;;;;-143.21;47.13;70638.75;5108346;27;20548;-77
2023/07/14 09:06:13;;;;;;;17.80;9.30;;;;;;;-143.21;46.64;70626.88;5113835;27;20225;-77
2023/07/14 09:08:40;;;;;;;13.50;9.07;;;;;;;-143.21;46.39;70624.88;5112931;27;20195;-76
2023/07/14 09:11:21;;;;;;;16.13;9.25;;;;;;;-143.21;46.63;70620.94;5114579;27;20202;-77
2023/07/14 09:13:57;;;;;;;15.93;9.32;;;;;;;-143.21;45.76;70605.06;5117006;27;20199;-77
2023/07/14 09:16:26;;;;;;;15.48;9.35;;;;;;;-143.21;45.08;70595.16;5113809;27;20199;-78
2023/07/14 09:19:05;;;;;;;18.02;9.02;;;;;;;-143.21;42.85;70609.03;5112857;27;20223;-77
2023/07/14 09:21:36;;;;;;;24.90;9.27;;;;;;;-143.21;44.40;70620.94;5109001;28;20207;-78
2023/07/14 09:24:25;;;;;;;16.73;9.98;;;;;;;-143.21;43.17;70613.00;5118083;27;20199;-77
2023/07/14 09:26:55;;;;;;;12.43;9.13;;;;;;;-143.21;44.14;70599.13;5107734;27;20212;-86
2023/07/14 09:29:41;;;;;;;15.23;8.80;;;;;;;-143.21;44.53;70579.31;5111056;28;20196;-87
2023/07/14 09:32:18;;;;;;;18.02;9.85;;;;;;;-143.21;45.68;70563.44;5110063;28;20585;-85
2023/07/14 09:34:55;;;;;;;15.27;8.27;;;;;;;-143.21;43.62;70533.72;5115503;27;20204;-86
2023/07/14 09:37:27;;;;;;;17.13;9.40;;;;;;;-143.21;44.70;70527.75;5109609;28;20684;-86
2023/07/14 09:40:03;;;;;;;16.60;8.88;;;;;;;-143.21;43.80;70496.06;5107377;28;20195;-86
2023/07/14 09:42:39;;;;;;;14.25;10.00;;;;;;;-143.21;43.40;70480.19;5109099;27;20573;-87
2023/07/14 09:45:16;;;;;;;13.07;8.57;;;;;;;-143.21;43.29;70450.47;5110535;27;20272;-85
2023/07/14 09:47:45;;;;;;;19.42;9.55;;;;;;;-143.21;43.33;70428.66;5109632;27;20206;-86
2023/07/14 09:50:18;;;;;;;14.80;9.00;;;;;;;-143.21;42.96;70420.72;5113596;27;20242;-86
2023/07/14 09:52:53;;;;;;;17.70;8.65;;;;;;;-143.21;43.42;70406.84;5114912;27;21127;-87
2023/07/14 09:55:28;;;;;;;19.67;9.70;;;;;;;-143.21;42.66;70396.94;5107995;28;20203;-87
2023/07/14 09:57:57;;;;;;;14.95;8.63;;;;;;;-143.21;41.73;70396.94;5116051;27;20221;-87
2023/07/14 10:00:26;;;;;;;15.77;9.05;;;;;;;-143.21;42.27;70387.03;5110119;27;20292;-87
2023/07/14 10:03:15;;;;;;;19.45;9.88;;;;;;;-143.21;41.04;70363.25;5111648;27;20208;-86
2023/07/14 10:05:52;;;;;;;15.65;8.75;;;;;;;-143.21;40.88;70353.34;5104447;28;20677;-86
2023/07/14 10:08:44;;;;;;;14.52;8.63;;;;;;;-143.21;39.94;70337.50;5111041;27;20225;-86
2023/07/14 10:11:19;;;;;;;17.42;8.85;;;;;;;-143.21;40.81;70327.56;5111324;27;20695;-85
2023/07/14 10:13:52;;;;;;;14.38;8.18;;;;;;;-143.21;39.94;70309.75;5110413;28;20256;-85
2023/07/14 10:16:20;;;;;;;16.05;8.68;;;;;;;-143.21;39.28;70315.69;5113171;27;20972;-85
2023/07/14 10:18:53;;;;;;;17.55;8.77;;;;;;;-143.21;39.67;70313.72;5114489;27;20231;-85
2023/07/14 10:21:27;;;;;;;20.45;9.10;;;;;;;-143.21;39.88;70291.91;5110793;28;20196;-85
2023/07/14 10:24:04;;;;;;;15.82;8.98;;;;;;;-143.21;40.17;70303.78;5111080;27;20204;-87
2023/07/14 10:26:33;;;;;;;15.30;8.88;;;;;;;-143.21;39.63;70311.72;5111056;28;20212;-87
2023/07/14 10:29:00;;;;;;;17.40;8.20;;;;;;;-143.21;39.27;70317.66;5111695;28;20210;-87
2023/07/14 10:31:36;;;;;;;14.90;8.63;;;;;;;-143.21;38.89;70317.66;5112422;28;20192;-85
2023/07/14 10:34:34;;;;;;;17.67;8.63;;;;;;;-143.21;39.12;70287.94;5108885;28;20188;-85
2023/07/14 10:37:13;;;;;;;17.50;8.98;;;;;;;-143.21;38.63;70250.28;5107311;28;20585;-85
2023/07/14 10:39:45;;;;;;;18.52;8.40;;;;;;;-143.21;38.73;70222.53;5109591;28;20207;-87
2023/07/14 10:42:17;;;;;;;13.05;8.80;;;;;;;-143.21;37.68;70192.81;5110163;28;20208;-87
2023/07/14 10:44:46;;;;;;;13.43;8.57;;;;;;;-143.21;37.00;70190.81;5109592;28;20273;-85
2023/07/14 10:47:18;;;;;;;16.05;8.40;;;;;;;-143.21;37.15;70196.78;5110187;28;20831;-85
2023/07/14 10:49:53;;;;;;;20.08;8.70;;;;;;;-143.21;38.50;70172.97;5109621;28;20226;-85
2023/07/14 10:52:27;;;;;;;16.77;8.55;;;;;;;-143.21;36.77;70174.97;5110011;27;20206;-86
2023/07/14 10:54:59;;;;;;;13.25;9.02;;;;;;;-143.21;37.52;70153.16;5114571;27;20191;-85
2023/07/14 10:57:37;;;;;;;15.68;8.52;;;;;;;-143.21;37.96;70141.28;5120322;27;20644;-84
2023/07/14 11:00:19;;;;;;;14.57;8.23;;;;;;;-143.21;36.68;70145.25;5120709;27;20669;-86
2023/07/14 11:02:54;;;;;;;16.00;8.75;;;;;;;-143.21;37.86;70171.00;5112968;27;20188;-87
2023/07/14 11:05:24;;;;;;;16.65;8.65;;;;;;;-143.21;37.70;70137.31;5114198;27;20199;-87
2023/07/14 11:07:54;;;;;;;17.15;8.60;;;;;;;-143.21;36.84;70103.63;5110526;28;20252;-86
2023/07/14 11:10:30;;;;;;;18.77;8.68;;;;;;;-143.21;37.36;70123.44;5110430;28;20203;-87
2023/07/14 11:13:05;;;;;;;17.00;8.63;;;;;;;-143.21;36.00;70115.50;5113904;28;20221;-87
2023/07/14 11:15:41;;;;;;;15.15;8.07;;;;;;;-143.21;36.46;70079.84;5113463;28;20203;-84
2023/07/14 11:18:21;;;;;;;18.08;8.25;;;;;;;-143.21;35.34;70085.78;5116910;27;20187;-85